sensor_id;sensor_type;location;lat;lon;timestamp;pressure;altitude;pressure_sealevel;temperature;humidity
52957;BME280;38819;42.692;23.342;2023-02-18T00:02:17;96058.38;;;5.96;52.66
52957;BME280;38819;42.692;23.342;2023-02-18T00:04:43;96049.66;;;6.00;52.26
52957;BME280;38819;42.692;23.342;2023-02-18T00:07:08;96055.25;;;5.99;52.67
52957;BME280;38819;42.692;23.342;2023-02-18T00:09:33;96052.81;;;5.97;52.82
52957;BME280;38819;42.692;23.342;2023-02-18T00:11:59;96051.22;;;5.84;53.17
52957;BME280;38819;42.692;23.342;2023-02-18T00:14:24;96045.28;;;5.82;53.03
52957;BME280;38819;42.692;23.342;2023-02-18T00:16:50;96037.09;;;5.89;52.94
52957;BME280;38819;42.692;23.342;2023-02-18T00:19:18;96036.59;;;5.75;53.14
52957;BME280;38819;42.692;23.342;2023-02-18T00:21:45;96018.53;;;5.70;53.30
52957;BME280;38819;42.692;23.342;2023-02-18T00:24:13;96023.75;;;5.77;53.25
52957;BME280;38819;42.692;23.342;2023-02-18T00:26:41;96020.03;;;5.78;53.34
52957;BME280;38819;42.692;23.342;2023-02-18T00:29:07;96008.56;;;5.83;53.27
52957;BME280;38819;42.692;23.342;2023-02-18T00:31:35;96017.66;;;5.82;52.89
52957;BME280;38819;42.692;23.342;2023-02-18T00:34:02;96011.63;;;5.74;53.06
52957;BME280;38819;42.692;23.342;2023-02-18T00:36:28;96007.44;;;5.79;52.70
52957;BME280;38819;42.692;23.342;2023-02-18T00:38:56;96008.16;;;5.74;52.58
52957;BME280;38819;42.692;23.342;2023-02-18T00:41:23;96004.50;;;5.80;52.05
52957;BME280;38819;42.692;23.342;2023-02-18T00:43:49;96004.19;;;5.77;51.90
52957;BME280;38819;42.692;23.342;2023-02-18T00:46:15;96000.09;;;5.74;51.88
52957;BME280;38819;42.692;23.342;2023-02-18T00:48:41;95992.47;;;5.66;51.69
52957;BME280;38819;42.692;23.342;2023-02-18T00:51:07;96005.38;;;5.69;51.71
52957;BME280;38819;42.692;23.342;2023-02-18T00:53:33;95999.22;;;5.68;51.76
52957;BME280;38819;42.692;23.342;2023-02-18T00:55:59;95997.19;;;5.75;51.80
52957;BME280;38819;42.692;23.342;2023-02-18T00:58:25;95990.63;;;5.83;51.66
52957;BME280;38819;42.692;23.342;2023-02-18T01:00:51;95998.59;;;5.78;51.82
52957;BME280;38819;42.692;23.342;2023-02-18T01:03:16;95997.50;;;5.62;52.26
52957;BME280;38819;42.692;23.342;2023-02-18T01:05:43;96003.91;;;5.61;52.09
52957;BME280;38819;42.692;23.342;2023-02-18T01:08:09;96003.56;;;5.57;52.44
52957;BME280;38819;42.692;23.342;2023-02-18T01:10:39;95997.81;;;5.66;52.34
52957;BME280;38819;42.692;23.342;2023-02-18T01:13:05;95999.44;;;5.50;52.72
52957;BME280;38819;42.692;23.342;2023-02-18T01:15:30;96000.00;;;5.52;52.59
52957;BME280;38819;42.692;23.342;2023-02-18T01:17:56;95990.94;;;5.41;52.78
52957;BME280;38819;42.692;23.342;2023-02-18T01:20:21;95993.41;;;5.14;54.12
52957;BME280;38819;42.692;23.342;2023-02-18T01:22:47;96009.00;;;5.17;54.08
52957;BME280;38819;42.692;23.342;2023-02-18T01:25:13;96001.75;;;5.17;54.08
52957;BME280;38819;42.692;23.342;2023-02-18T01:27:38;96000.06;;;5.11;54.36
52957;BME280;38819;42.692;23.342;2023-02-18T01:30:06;95991.75;;;5.25;53.79
52957;BME280;38819;42.692;23.342;2023-02-18T01:32:32;95985.47;;;5.19;54.01
52957;BME280;38819;42.692;23.342;2023-02-18T01:35:00;95988.13;;;5.19;54.10
52957;BME280;38819;42.692;23.342;2023-02-18T01:37:26;95987.66;;;5.22;54.24
52957;BME280;38819;42.692;23.342;2023-02-18T01:39:51;95987.75;;;5.27;53.62
52957;BME280;38819;42.692;23.342;2023-02-18T01:42:19;95999.19;;;5.23;53.89
52957;BME280;38819;42.692;23.342;2023-02-18T01:44:46;95995.38;;;5.18;53.98
52957;BME280;38819;42.692;23.342;2023-02-18T01:47:12;95996.88;;;5.26;53.61
52957;BME280;38819;42.692;23.342;2023-02-18T01:49:38;96005.28;;;5.18;53.72
52957;BME280;38819;42.692;23.342;2023-02-18T01:52:33;96006.41;;;5.22;53.90
52957;BME280;38819;42.692;23.342;2023-02-18T01:54:58;95999.59;;;5.03;54.78
52957;BME280;38819;42.692;23.342;2023-02-18T01:57:32;96020.34;;;4.95;54.85
52957;BME280;38819;42.692;23.342;2023-02-18T02:00:08;96012.94;;;5.14;54.40
52957;BME280;38819;42.692;23.342;2023-02-18T02:02:39;96003.28;;;4.85;55.17
52957;BME280;38819;42.692;23.342;2023-02-18T02:05:06;96000.25;;;4.93;54.84
52957;BME280;38819;42.692;23.342;2023-02-18T02:07:31;95997.53;;;5.05;54.35
52957;BME280;38819;42.692;23.342;2023-02-18T02:09:58;95991.94;;;4.94;54.49
52957;BME280;38819;42.692;23.342;2023-02-18T02:23:33;96006.50;;;4.98;54.10
52957;BME280;38819;42.692;23.342;2023-02-18T02:26:41;96002.66;;;4.94;54.43
52957;BME280;38819;42.692;23.342;2023-02-18T02:35:22;95993.72;;;4.89;54.94
52957;BME280;38819;42.692;23.342;2023-02-18T02:38:05;95981.97;;;4.90;55.01
52957;BME280;38819;42.692;23.342;2023-02-18T02:46:21;95975.13;;;4.82;55.18
52957;BME280;38819;42.692;23.342;2023-02-18T02:51:37;95976.22;;;4.57;56.27
52957;BME280;38819;42.692;23.342;2023-02-18T02:54:13;95987.63;;;4.53;56.88
52957;BME280;38819;42.692;23.342;2023-02-18T02:56:39;95990.75;;;4.61;56.31
52957;BME280;38819;42.692;23.342;2023-02-18T02:59:09;95997.03;;;4.67;56.18
52957;BME280;38819;42.692;23.342;2023-02-18T03:01:50;96003.31;;;4.61;56.16
52957;BME280;38819;42.692;23.342;2023-02-18T03:12:44;95980.47;;;4.82;55.32
52957;BME280;38819;42.692;23.342;2023-02-18T03:15:22;95983.00;;;4.89;55.08
52957;BME280;38819;42.692;23.342;2023-02-18T03:18:13;95978.72;;;4.76;55.85
52957;BME280;38819;42.692;23.342;2023-02-18T03:20:46;95994.69;;;4.71;55.78
52957;BME280;38819;42.692;23.342;2023-02-18T03:23:20;95997.34;;;4.71;55.38
52957;BME280;38819;42.692;23.342;2023-02-18T03:25:48;96014.81;;;4.73;55.55
52957;BME280;38819;42.692;23.342;2023-02-18T03:28:18;96016.34;;;4.57;55.79
52957;BME280;38819;42.692;23.342;2023-02-18T03:30:54;96029.50;;;4.59;55.57
52957;BME280;38819;42.692;23.342;2023-02-18T03:33:27;96033.56;;;4.61;55.78
52957;BME280;38819;42.692;23.342;2023-02-18T03:35:55;96038.94;;;4.50;56.19
52957;BME280;38819;42.692;23.342;2023-02-18T03:38:44;96037.06;;;4.38;55.89
52957;BME280;38819;42.692;23.342;2023-02-18T03:41:10;96035.66;;;4.48;55.48
52957;BME280;38819;42.692;23.342;2023-02-18T03:43:36;96030.19;;;4.42;55.65
52957;BME280;38819;42.692;23.342;2023-02-18T03:46:02;96035.78;;;4.41;55.48
52957;BME280;38819;42.692;23.342;2023-02-18T03:48:28;96039.63;;;4.33;55.97
52957;BME280;38819;42.692;23.342;2023-02-18T03:50:53;96036.97;;;4.33;55.83
52957;BME280;38819;42.692;23.342;2023-02-18T03:53:19;96045.56;;;4.47;55.77
52957;BME280;38819;42.692;23.342;2023-02-18T03:55:44;96047.19;;;4.48;55.94
52957;BME280;38819;42.692;23.342;2023-02-18T03:58:10;96046.34;;;4.48;55.99
52957;BME280;38819;42.692;23.342;2023-02-18T04:00:35;96039.41;;;4.47;56.30
52957;BME280;38819;42.692;23.342;2023-02-18T04:03:01;96040.66;;;4.44;56.30
52957;BME280;38819;42.692;23.342;2023-02-18T04:05:28;96026.94;;;4.52;56.06
52957;BME280;38819;42.692;23.342;2023-02-18T04:07:53;96039.50;;;4.40;56.33
52957;BME280;38819;42.692;23.342;2023-02-18T04:10:19;96031.59;;;4.45;56.06
52957;BME280;38819;42.692;23.342;2023-02-18T04:12:44;96031.84;;;4.32;56.70
52957;BME280;38819;42.692;23.342;2023-02-18T04:15:10;96034.84;;;4.35;56.65
52957;BME280;38819;42.692;23.342;2023-02-18T04:17:35;96021.47;;;4.35;56.78
52957;BME280;38819;42.692;23.342;2023-02-18T04:20:01;96022.91;;;4.38;56.51
52957;BME280;38819;42.692;23.342;2023-02-18T04:22:28;96005.88;;;4.44;56.34
52957;BME280;38819;42.692;23.342;2023-02-18T04:24:54;96010.66;;;4.42;56.58
52957;BME280;38819;42.692;23.342;2023-02-18T04:27:19;96003.69;;;4.53;56.46
52957;BME280;38819;42.692;23.342;2023-02-18T04:29:44;96013.09;;;4.55;55.99
52957;BME280;38819;42.692;23.342;2023-02-18T04:32:10;96009.72;;;4.60;55.91
52957;BME280;38819;42.692;23.342;2023-02-18T04:34:35;96005.63;;;4.57;55.95
52957;BME280;38819;42.692;23.342;2023-02-18T04:37:01;96008.31;;;4.57;56.23
52957;BME280;38819;42.692;23.342;2023-02-18T04:39:26;96016.00;;;4.66;55.91
52957;BME280;38819;42.692;23.342;2023-02-18T04:41:52;96005.84;;;4.68;55.71
52957;BME280;38819;42.692;23.342;2023-02-18T04:44:17;96016.22;;;4.64;56.21
52957;BME280;38819;42.692;23.342;2023-02-18T04:46:42;96010.19;;;4.57;56.23
52957;BME280;38819;42.692;23.342;2023-02-18T04:49:08;96010.53;;;4.49;56.46
52957;BME280;38819;42.692;23.342;2023-02-18T04:51:33;96019.88;;;4.46;56.84
52957;BME280;38819;42.692;23.342;2023-02-18T04:53:59;96021.13;;;4.43;57.02
52957;BME280;38819;42.692;23.342;2023-02-18T04:56:24;96028.00;;;4.39;56.85
52957;BME280;38819;42.692;23.342;2023-02-18T04:58:50;96026.59;;;4.37;56.97
52957;BME280;38819;42.692;23.342;2023-02-18T05:01:15;96042.31;;;4.33;57.17
52957;BME280;38819;42.692;23.342;2023-02-18T05:03:40;96034.28;;;4.21;57.37
52957;BME280;38819;42.692;23.342;2023-02-18T05:06:06;96043.34;;;4.32;57.16
52957;BME280;38819;42.692;23.342;2023-02-18T05:08:31;96038.81;;;4.33;57.19
52957;BME280;38819;42.692;23.342;2023-02-18T05:10:57;96030.91;;;4.38;56.90
52957;BME280;38819;42.692;23.342;2023-02-18T05:13:22;96028.22;;;4.50;56.78
52957;BME280;38819;42.692;23.342;2023-02-18T05:15:48;96017.31;;;4.51;56.96
52957;BME280;38819;42.692;23.342;2023-02-18T05:18:14;96012.88;;;4.57;56.89
52957;BME280;38819;42.692;23.342;2023-02-18T05:20:39;96015.75;;;4.67;56.91
52957;BME280;38819;42.692;23.342;2023-02-18T05:23:04;96002.59;;;4.66;56.90
52957;BME280;38819;42.692;23.342;2023-02-18T05:25:30;96011.47;;;4.66;56.77
52957;BME280;38819;42.692;23.342;2023-02-18T05:27:55;96019.97;;;4.63;56.16
52957;BME280;38819;42.692;23.342;2023-02-18T05:30:21;96028.44;;;4.60;56.22
52957;BME280;38819;42.692;23.342;2023-02-18T05:32:46;96005.88;;;4.56;56.32
52957;BME280;38819;42.692;23.342;2023-02-18T05:35:12;96017.41;;;4.68;55.88
52957;BME280;38819;42.692;23.342;2023-02-18T05:37:38;96008.78;;;4.66;56.12
52957;BME280;38819;42.692;23.342;2023-02-18T05:40:04;96022.31;;;4.59;56.52
52957;BME280;38819;42.692;23.342;2023-02-18T05:42:30;96026.69;;;4.66;56.32
52957;BME280;38819;42.692;23.342;2023-02-18T05:44:57;96025.44;;;4.56;56.45
52957;BME280;38819;42.692;23.342;2023-02-18T05:47:23;96024.97;;;4.48;56.78
52957;BME280;38819;42.692;23.342;2023-02-18T05:49:49;96020.09;;;4.44;57.23
52957;BME280;38819;42.692;23.342;2023-02-18T05:52:15;96027.53;;;4.42;56.97
52957;BME280;38819;42.692;23.342;2023-02-18T05:54:41;96040.88;;;4.54;57.02
52957;BME280;38819;42.692;23.342;2023-02-18T05:57:07;96037.88;;;4.51;57.27
52957;BME280;38819;42.692;23.342;2023-02-18T05:59:32;96037.63;;;4.52;57.28
52957;BME280;38819;42.692;23.342;2023-02-18T06:01:58;96046.13;;;4.61;57.17
52957;BME280;38819;42.692;23.342;2023-02-18T06:04:23;96047.16;;;4.72;56.88
52957;BME280;38819;42.692;23.342;2023-02-18T06:06:49;96034.22;;;4.80;56.62
52957;BME280;38819;42.692;23.342;2023-02-18T06:09:14;96036.09;;;4.92;56.46
52957;BME280;38819;42.692;23.342;2023-02-18T06:11:40;96033.75;;;4.95;56.45
52957;BME280;38819;42.692;23.342;2023-02-18T06:14:05;96039.44;;;4.99;56.76
52957;BME280;38819;42.692;23.342;2023-02-18T06:16:31;96035.72;;;5.00;56.46
52957;BME280;38819;42.692;23.342;2023-02-18T06:18:56;96034.78;;;5.06;56.37
52957;BME280;38819;42.692;23.342;2023-02-18T06:21:22;96021.34;;;5.18;55.99
52957;BME280;38819;42.692;23.342;2023-02-18T06:23:48;96029.56;;;5.28;55.99
52957;BME280;38819;42.692;23.342;2023-02-18T06:26:13;96023.97;;;5.30;55.58
52957;BME280;38819;42.692;23.342;2023-02-18T06:28:39;96018.13;;;5.33;55.52
52957;BME280;38819;42.692;23.342;2023-02-18T06:31:04;96014.34;;;5.46;55.12
52957;BME280;38819;42.692;23.342;2023-02-18T06:33:30;96013.25;;;5.59;54.87
52957;BME280;38819;42.692;23.342;2023-02-18T06:35:58;96019.16;;;5.61;55.01
52957;BME280;38819;42.692;23.342;2023-02-18T06:38:25;96024.28;;;5.62;55.06
52957;BME280;38819;42.692;23.342;2023-02-18T06:40:50;96029.66;;;5.62;54.65
52957;BME280;38819;42.692;23.342;2023-02-18T06:43:16;96019.81;;;5.68;54.24
52957;BME280;38819;42.692;23.342;2023-02-18T06:45:41;96019.97;;;5.61;54.63
52957;BME280;38819;42.692;23.342;2023-02-18T06:48:07;96026.16;;;5.62;54.72
52957;BME280;38819;42.692;23.342;2023-02-18T06:50:32;96022.75;;;5.66;54.47
52957;BME280;38819;42.692;23.342;2023-02-18T06:52:58;96022.03;;;5.71;54.00
52957;BME280;38819;42.692;23.342;2023-02-18T06:55:24;96027.72;;;5.74;53.82
52957;BME280;38819;42.692;23.342;2023-02-18T06:57:49;96029.53;;;5.86;53.48
52957;BME280;38819;42.692;23.342;2023-02-18T07:00:15;96026.03;;;5.85;53.74
52957;BME280;38819;42.692;23.342;2023-02-18T07:02:40;96024.44;;;6.01;53.38
52957;BME280;38819;42.692;23.342;2023-02-18T07:05:06;96027.19;;;6.06;53.24
52957;BME280;38819;42.692;23.342;2023-02-18T07:07:31;96022.09;;;6.05;53.50
52957;BME280;38819;42.692;23.342;2023-02-18T07:09:57;96023.88;;;6.16;53.15
52957;BME280;38819;42.692;23.342;2023-02-18T07:12:22;96021.25;;;6.21;53.27
52957;BME280;38819;42.692;23.342;2023-02-18T07:14:48;96022.41;;;6.25;53.36
52957;BME280;38819;42.692;23.342;2023-02-18T07:17:13;96015.56;;;6.35;53.38
52957;BME280;38819;42.692;23.342;2023-02-18T07:19:39;96016.63;;;6.34;53.59
52957;BME280;38819;42.692;23.342;2023-02-18T07:22:05;96003.78;;;6.36;53.41
52957;BME280;38819;42.692;23.342;2023-02-18T07:24:36;96000.63;;;6.39;53.32
52957;BME280;38819;42.692;23.342;2023-02-18T07:27:02;96004.56;;;6.53;53.28
52957;BME280;38819;42.692;23.342;2023-02-18T07:29:27;96001.63;;;6.55;52.66
52957;BME280;38819;42.692;23.342;2023-02-18T07:31:53;96020.09;;;6.51;52.84
52957;BME280;38819;42.692;23.342;2023-02-18T07:34:18;96021.31;;;6.60;52.95
52957;BME280;38819;42.692;23.342;2023-02-18T07:36:44;96024.44;;;6.35;53.32
52957;BME280;38819;42.692;23.342;2023-02-18T07:39:10;96015.41;;;6.41;52.85
52957;BME280;38819;42.692;23.342;2023-02-18T07:41:35;96028.50;;;6.38;52.45
52957;BME280;38819;42.692;23.342;2023-02-18T07:44:01;96016.53;;;6.45;52.40
52957;BME280;38819;42.692;23.342;2023-02-18T07:46:26;96026.53;;;6.50;52.18
52957;BME280;38819;42.692;23.342;2023-02-18T07:48:51;96026.94;;;6.59;52.03
52957;BME280;38819;42.692;23.342;2023-02-18T07:51:17;96030.38;;;6.76;51.93
52957;BME280;38819;42.692;23.342;2023-02-18T07:53:43;96028.66;;;6.87;51.22
52957;BME280;38819;42.692;23.342;2023-02-18T07:56:09;96024.47;;;6.96;50.94
52957;BME280;38819;42.692;23.342;2023-02-18T07:58:36;96024.53;;;7.01;50.82
52957;BME280;38819;42.692;23.342;2023-02-18T08:01:07;96016.09;;;7.15;50.61
52957;BME280;38819;42.692;23.342;2023-02-18T08:03:33;96013.53;;;7.25;50.38
52957;BME280;38819;42.692;23.342;2023-02-18T08:05:59;96010.19;;;7.40;49.95
52957;BME280;38819;42.692;23.342;2023-02-18T08:08:26;96015.44;;;7.52;49.99
52957;BME280;38819;42.692;23.342;2023-02-18T08:10:55;96027.19;;;7.73;49.91
52957;BME280;38819;42.692;23.342;2023-02-18T08:13:21;96001.25;;;7.89;49.43
52957;BME280;38819;42.692;23.342;2023-02-18T08:15:47;96005.97;;;8.04;48.97
52957;BME280;38819;42.692;23.342;2023-02-18T08:18:15;95992.56;;;8.09;48.81
52957;BME280;38819;42.692;23.342;2023-02-18T08:20:41;95987.50;;;8.18;48.50
52957;BME280;38819;42.692;23.342;2023-02-18T08:23:07;96002.94;;;8.32;47.97
52957;BME280;38819;42.692;23.342;2023-02-18T08:25:32;96004.44;;;8.50;47.64
52957;BME280;38819;42.692;23.342;2023-02-18T08:27:58;95989.94;;;8.62;47.37
52957;BME280;38819;42.692;23.342;2023-02-18T08:30:25;95990.31;;;8.76;47.09
52957;BME280;38819;42.692;23.342;2023-02-18T08:32:50;95992.50;;;8.84;46.84
52957;BME280;38819;42.692;23.342;2023-02-18T08:35:16;96001.16;;;8.91;47.12
52957;BME280;38819;42.692;23.342;2023-02-18T08:37:41;96005.50;;;8.97;46.78
52957;BME280;38819;42.692;23.342;2023-02-18T08:40:08;95988.00;;;9.05;46.40
52957;BME280;38819;42.692;23.342;2023-02-18T08:42:33;95978.31;;;9.04;46.39
52957;BME280;38819;42.692;23.342;2023-02-18T08:44:59;95985.91;;;9.12;46.29
52957;BME280;38819;42.692;23.342;2023-02-18T08:47:24;95978.91;;;9.21;46.37
52957;BME280;38819;42.692;23.342;2023-02-18T08:49:52;95990.56;;;9.32;46.01
52957;BME280;38819;42.692;23.342;2023-02-18T08:52:18;95992.19;;;9.43;45.78
52957;BME280;38819;42.692;23.342;2023-02-18T08:54:43;96002.41;;;9.36;45.78
52957;BME280;38819;42.692;23.342;2023-02-18T08:57:09;95996.19;;;9.31;45.80
52957;BME280;38819;42.692;23.342;2023-02-18T08:59:34;95983.00;;;9.29;46.02
52957;BME280;38819;42.692;23.342;2023-02-18T09:02:00;95993.78;;;9.39;45.84
52957;BME280;38819;42.692;23.342;2023-02-18T09:04:25;95989.47;;;9.43;45.85
52957;BME280;38819;42.692;23.342;2023-02-18T09:06:50;95987.88;;;9.37;45.86
52957;BME280;38819;42.692;23.342;2023-02-18T09:09:17;95992.16;;;9.38;45.90
52957;BME280;38819;42.692;23.342;2023-02-18T09:11:43;95999.94;;;9.24;45.93
52957;BME280;38819;42.692;23.342;2023-02-18T09:14:08;95994.53;;;9.19;46.34
52957;BME280;38819;42.692;23.342;2023-02-18T09:16:34;95985.97;;;9.33;46.07
52957;BME280;38819;42.692;23.342;2023-02-18T09:19:00;95984.34;;;9.47;45.99
52957;BME280;38819;42.692;23.342;2023-02-18T09:21:26;95990.31;;;9.39;46.03
52957;BME280;38819;42.692;23.342;2023-02-18T09:23:51;95988.38;;;9.34;46.08
52957;BME280;38819;42.692;23.342;2023-02-18T09:26:18;95987.34;;;9.45;45.66
52957;BME280;38819;42.692;23.342;2023-02-18T09:28:48;95978.72;;;9.54;45.54
52957;BME280;38819;42.692;23.342;2023-02-18T09:31:15;95974.97;;;9.70;45.32
52957;BME280;38819;42.692;23.342;2023-02-18T09:33:45;95965.28;;;9.85;44.95
52957;BME280;38819;42.692;23.342;2023-02-18T09:36:11;95966.91;;;9.96;45.07
52957;BME280;38819;42.692;23.342;2023-02-18T09:38:36;95962.56;;;10.10;44.69
52957;BME280;38819;42.692;23.342;2023-02-18T09:41:04;95964.47;;;10.15;44.43
52957;BME280;38819;42.692;23.342;2023-02-18T09:43:34;95959.88;;;10.05;44.19
52957;BME280;38819;42.692;23.342;2023-02-18T09:46:02;95958.50;;;10.23;43.92
52957;BME280;38819;42.692;23.342;2023-02-18T09:48:31;95973.91;;;10.38;43.90
52957;BME280;38819;42.692;23.342;2023-02-18T09:50:58;95969.59;;;10.32;43.69
52957;BME280;38819;42.692;23.342;2023-02-18T09:53:24;95969.84;;;10.35;43.66
52957;BME280;38819;42.692;23.342;2023-02-18T09:55:52;95966.31;;;10.50;43.17
52957;BME280;38819;42.692;23.342;2023-02-18T09:58:21;95954.19;;;10.48;43.22
52957;BME280;38819;42.692;23.342;2023-02-18T10:00:52;95952.81;;;10.55;42.97
52957;BME280;38819;42.692;23.342;2023-02-18T10:03:21;95959.59;;;10.53;42.83
52957;BME280;38819;42.692;23.342;2023-02-18T10:06:09;95944.19;;;10.53;43.28
52957;BME280;38819;42.692;23.342;2023-02-18T10:08:41;95948.22;;;10.61;43.31
52957;BME280;38819;42.692;23.342;2023-02-18T10:11:14;95936.56;;;10.66;43.31
52957;BME280;38819;42.692;23.342;2023-02-18T10:13:41;95938.44;;;10.75;43.10
52957;BME280;38819;42.692;23.342;2023-02-18T10:16:08;95933.28;;;10.79;42.92
52957;BME280;38819;42.692;23.342;2023-02-18T10:18:42;95924.84;;;10.96;42.58
52957;BME280;38819;42.692;23.342;2023-02-18T10:21:12;95933.44;;;11.08;42.37
52957;BME280;38819;42.692;23.342;2023-02-18T10:23:41;95931.75;;;11.23;42.23
52957;BME280;38819;42.692;23.342;2023-02-18T10:26:14;95920.91;;;11.28;41.00
52957;BME280;38819;42.692;23.342;2023-02-18T10:28:41;95911.66;;;11.34;40.54
52957;BME280;38819;42.692;23.342;2023-02-18T10:31:09;95902.59;;;11.54;39.87
52957;BME280;38819;42.692;23.342;2023-02-18T10:36:24;95908.16;;;11.73;38.99
52957;BME280;38819;42.692;23.342;2023-02-18T10:41:43;95885.22;;;12.00;38.83
52957;BME280;38819;42.692;23.342;2023-02-18T10:47:34;95891.16;;;12.31;37.85
52957;BME280;38819;42.692;23.342;2023-02-18T10:50:08;95885.44;;;12.57;35.28
52957;BME280;38819;42.692;23.342;2023-02-18T10:52:42;95876.19;;;12.63;35.25
52957;BME280;38819;42.692;23.342;2023-02-18T10:55:10;95871.84;;;12.62;38.62
52957;BME280;38819;42.692;23.342;2023-02-18T10:57:51;95876.63;;;12.70;38.91
52957;BME280;38819;42.692;23.342;2023-02-18T11:00:22;95862.56;;;12.68;38.27
52957;BME280;38819;42.692;23.342;2023-02-18T11:03:24;95857.38;;;12.72;38.23
52957;BME280;38819;42.692;23.342;2023-02-18T11:05:55;95847.81;;;12.74;37.90
52957;BME280;38819;42.692;23.342;2023-02-18T11:08:39;95869.41;;;12.85;37.71
52957;BME280;38819;42.692;23.342;2023-02-18T11:11:16;95850.22;;;13.00;35.03
52957;BME280;38819;42.692;23.342;2023-02-18T11:13:42;95839.59;;;13.04;34.63
52957;BME280;38819;42.692;23.342;2023-02-18T11:16:10;95859.84;;;13.11;34.65
52957;BME280;38819;42.692;23.342;2023-02-18T11:18:41;95850.59;;;13.12;34.14
52957;BME280;38819;42.692;23.342;2023-02-18T11:23:55;95836.16;;;13.17;33.78
52957;BME280;38819;42.692;23.342;2023-02-18T11:26:32;95824.78;;;13.15;33.80
52957;BME280;38819;42.692;23.342;2023-02-18T11:29:21;95822.88;;;13.15;33.52
52957;BME280;38819;42.692;23.342;2023-02-18T11:31:53;95813.72;;;13.11;33.92
52957;BME280;38819;42.692;23.342;2023-02-18T11:34:22;95818.25;;;13.16;33.91
52957;BME280;38819;42.692;23.342;2023-02-18T11:36:49;95806.91;;;13.14;33.92
52957;BME280;38819;42.692;23.342;2023-02-18T11:39:19;95809.81;;;13.18;34.04
52957;BME280;38819;42.692;23.342;2023-02-18T11:41:53;95805.84;;;13.29;33.96
52957;BME280;38819;42.692;23.342;2023-02-18T11:44:50;95810.19;;;13.30;34.27
52957;BME280;38819;42.692;23.342;2023-02-18T11:47:21;95800.94;;;13.31;34.09
52957;BME280;38819;42.692;23.342;2023-02-18T11:50:14;95790.25;;;13.40;34.13
52957;BME280;38819;42.692;23.342;2023-02-18T11:52:45;95799.63;;;13.47;34.18
52957;BME280;38819;42.692;23.342;2023-02-18T11:55:22;95796.31;;;13.50;34.07
52957;BME280;38819;42.692;23.342;2023-02-18T11:57:58;95785.28;;;13.61;34.19
52957;BME280;38819;42.692;23.342;2023-02-18T12:03:01;95771.75;;;13.75;nan
52957;BME280;38819;42.692;23.342;2023-02-18T12:05:30;95768.94;;;13.80;34.04
52957;BME280;38819;42.692;23.342;2023-02-18T12:10:29;95760.53;;;13.95;34.66
52957;BME280;38819;42.692;23.342;2023-02-18T12:13:36;95765.88;;;14.00;34.56
52957;BME280;38819;42.692;23.342;2023-02-18T12:28:22;95743.63;;;14.12;35.07
52957;BME280;38819;42.692;23.342;2023-02-18T12:56:11;95701.63;;;14.46;34.98
52957;BME280;38819;42.692;23.342;2023-02-18T13:01:36;95695.66;;;14.58;33.85
52957;BME280;38819;42.692;23.342;2023-02-18T13:15:20;95699.63;;;14.88;33.17
52957;BME280;38819;42.692;23.342;2023-02-18T13:17:48;95700.00;;;14.95;33.05
52957;BME280;38819;42.692;23.342;2023-02-18T13:20:27;95688.63;;;14.93;32.98
52957;BME280;38819;42.692;23.342;2023-02-18T13:22:56;95685.59;;;14.95;33.94
52957;BME280;38819;42.692;23.342;2023-02-18T13:25:21;95681.75;;;14.96;34.13
52957;BME280;38819;42.692;23.342;2023-02-18T13:28:10;95693.97;;;14.98;34.39
52957;BME280;38819;42.692;23.342;2023-02-18T13:39:17;95697.63;;;14.80;35.46
52957;BME280;38819;42.692;23.342;2023-02-18T13:41:45;95689.91;;;14.73;35.42
52957;BME280;38819;42.692;23.342;2023-02-18T13:46:51;95709.03;;;14.68;35.89
52957;BME280;38819;42.692;23.342;2023-02-18T13:49:21;95703.31;;;14.70;35.37
52957;BME280;38819;42.692;23.342;2023-02-18T13:51:49;95689.22;;;14.68;35.34
52957;BME280;38819;42.692;23.342;2023-02-18T13:54:49;95696.28;;;14.69;35.53
52957;BME280;38819;42.692;23.342;2023-02-18T13:57:19;95691.44;;;14.66;35.65
52957;BME280;38819;42.692;23.342;2023-02-18T13:59:48;95688.09;;;14.55;35.70
52957;BME280;38819;42.692;23.342;2023-02-18T14:04:51;95702.94;;;14.49;35.92
52957;BME280;38819;42.692;23.342;2023-02-18T14:09:44;95695.50;;;14.40;36.04
52957;BME280;38819;42.692;23.342;2023-02-18T14:12:34;95693.59;;;14.41;35.69
52957;BME280;38819;42.692;23.342;2023-02-18T14:17:48;95702.03;;;14.39;35.92
52957;BME280;38819;42.692;23.342;2023-02-18T14:22:49;95701.25;;;14.39;35.89
52957;BME280;38819;42.692;23.342;2023-02-18T14:27:44;95689.56;;;14.38;35.78
52957;BME280;38819;42.692;23.342;2023-02-18T14:32:49;95701.06;;;14.21;36.12
52957;BME280;38819;42.692;23.342;2023-02-18T14:38:26;95716.94;;;14.28;36.09
52957;BME280;38819;42.692;23.342;2023-02-18T14:41:47;95707.13;;;14.18;36.18
52957;BME280;38819;42.692;23.342;2023-02-18T14:47:42;95707.13;;;14.18;36.40
52957;BME280;38819;42.692;23.342;2023-02-18T14:50:14;95697.44;;;14.12;36.67
52957;BME280;38819;42.692;23.342;2023-02-18T14:52:53;95707.59;;;14.20;36.60
52957;BME280;38819;42.692;23.342;2023-02-18T14:55:29;95695.84;;;14.25;36.68
52957;BME280;38819;42.692;23.342;2023-02-18T14:58:07;95694.53;;;14.22;36.65
52957;BME280;38819;42.692;23.342;2023-02-18T15:00:48;95691.19;;;14.25;36.59
52957;BME280;38819;42.692;23.342;2023-02-18T15:03:16;95697.13;;;14.27;36.84
52957;BME280;38819;42.692;23.342;2023-02-18T15:05:44;95694.03;;;14.20;36.83
52957;BME280;38819;42.692;23.342;2023-02-18T15:08:18;95702.66;;;14.22;36.65
52957;BME280;38819;42.692;23.342;2023-02-18T15:11:10;95690.91;;;14.13;36.85
52957;BME280;38819;42.692;23.342;2023-02-18T15:13:40;95692.63;;;14.09;36.92
52957;BME280;38819;42.692;23.342;2023-02-18T15:16:13;95707.09;;;14.04;37.19
52957;BME280;38819;42.692;23.342;2023-02-18T15:18:48;95705.22;;;14.05;37.25
52957;BME280;38819;42.692;23.342;2023-02-18T15:21:25;95686.50;;;14.03;37.08
52957;BME280;38819;42.692;23.342;2023-02-18T15:24:08;95687.91;;;14.01;37.16